Current Weather

Kariba Intl

Kariba Intl, Zimbabwe (FVKB)

Report from: Saturday, February 4, 2023 5:00 PM CAT
Current time: Sunday, February 5, 2023 6:17 AM CAT

Nearby weather
Weather history
Weather forecast

Temperature30.0°C (86.0°F)
Heat index34.2°C (93.6°F)
Dew point23.0°C (73.4°F)
Winds Calm
Visibility6.2 mi. (10 km)
Clouds Few clouds with towering cumulus 4,500 ft. (1,372 m)
Ceiling: Broken clouds 30,000 ft. (9,144 m)
Altimeter29.77 in.Hg (1008 mB)
Relative humidity66 %
Density altitude2,273 ft. (693 m)
Flight conditions Visual Meteorological Conditions
Raw dataFVKB 041500Z 00000KT 9999 FEW045TCU BKN300 30/23 Q1008
An unhandled exception has occurred. See browser dev tools for details. Reload 🗙